createdAt,value
2023-02-19T00:01:43.304Z,2.50
2023-02-19T00:04:18.226Z,2.70
2023-02-19T00:06:46.233Z,2.77
2023-02-19T00:09:14.498Z,2.50
2023-02-19T00:11:41.764Z,2.53
2023-02-19T00:14:08.561Z,2.17
2023-02-19T00:16:39.934Z,3.40
2023-02-19T00:19:08.641Z,2.80
2023-02-19T00:21:34.989Z,2.43
2023-02-19T00:24:04.353Z,2.40
2023-02-19T00:26:31.296Z,2.20
2023-02-19T00:28:58.411Z,3.10
2023-02-19T00:31:32.768Z,2.57
2023-02-19T00:34:04.991Z,3.30
2023-02-19T00:36:34.853Z,3.10
2023-02-19T00:39:01.433Z,3.00
2023-02-19T00:41:28.839Z,3.40
2023-02-19T00:44:03.802Z,2.90
2023-02-19T00:46:35.374Z,2.63
2023-02-19T00:49:02.040Z,3.27
2023-02-19T00:51:32.000Z,3.00
2023-02-19T00:53:58.850Z,3.10
2023-02-19T00:56:26.631Z,2.93
2023-02-19T00:58:53.415Z,2.93
2023-02-19T01:01:20.490Z,2.57
2023-02-19T01:03:47.726Z,3.13
2023-02-19T01:06:16.813Z,3.03
2023-02-19T01:08:43.908Z,3.10
2023-02-19T01:11:11.772Z,2.50
2023-02-19T01:13:38.492Z,2.60
2023-02-19T01:16:06.278Z,2.63
2023-02-19T01:18:33.518Z,3.10
2023-02-19T01:21:00.002Z,3.50
2023-02-19T01:23:26.505Z,3.33
2023-02-19T01:25:52.846Z,3.40
2023-02-19T01:28:19.184Z,3.87
2023-02-19T01:30:45.546Z,6.00
2023-02-19T01:33:11.887Z,6.80
2023-02-19T01:35:39.084Z,9.23
2023-02-19T01:38:07.321Z,7.90
2023-02-19T01:40:34.268Z,5.90
2023-02-19T01:43:00.640Z,5.40
2023-02-19T01:45:32.045Z,3.90
2023-02-19T01:48:17.253Z,3.53
2023-02-19T01:51:09.520Z,3.90
2023-02-19T01:53:44.916Z,3.30
2023-02-19T01:56:17.439Z,3.13
2023-02-19T01:58:44.853Z,3.23
2023-02-19T02:01:11.695Z,3.50
2023-02-19T02:03:40.400Z,3.03
2023-02-19T02:06:20.160Z,3.50
2023-02-19T02:09:05.926Z,3.40
2023-02-19T02:11:32.346Z,3.27
2023-02-19T02:13:58.984Z,3.50
2023-02-19T02:16:35.869Z,3.33
2023-02-19T02:19:44.178Z,3.80
2023-02-19T02:22:46.417Z,5.30
2023-02-19T02:25:33.024Z,4.33
2023-02-19T02:28:36.903Z,4.17
2023-02-19T02:31:12.161Z,4.73
2023-02-19T02:33:49.535Z,3.43
2023-02-19T02:36:27.991Z,3.57
2023-02-19T02:38:56.745Z,3.37
2023-02-19T02:41:23.174Z,4.63
2023-02-19T02:43:49.515Z,4.23
2023-02-19T02:46:22.928Z,3.67
2023-02-19T02:48:57.473Z,3.70
2023-02-19T02:51:38.625Z,3.70
2023-02-19T02:54:30.667Z,3.63
2023-02-19T02:56:59.706Z,4.30
2023-02-19T02:59:31.306Z,4.77
2023-02-19T03:02:10.803Z,6.00
2023-02-19T03:05:12.630Z,4.20
2023-02-19T03:07:45.885Z,5.00
2023-02-19T03:10:17.724Z,4.70
2023-02-19T03:13:04.507Z,5.53
2023-02-19T03:15:58.629Z,5.43
2023-02-19T03:18:48.018Z,6.90
2023-02-19T03:21:17.393Z,8.40
2023-02-19T03:24:05.601Z,6.63
2023-02-19T03:26:34.001Z,6.47
2023-02-19T03:29:21.605Z,5.07
2023-02-19T03:31:52.297Z,5.00
2023-02-19T03:34:26.910Z,5.03
2023-02-19T03:37:10.469Z,5.17
2023-02-19T03:39:44.323Z,6.03
2023-02-19T03:42:20.607Z,6.03
2023-02-19T03:45:08.004Z,6.57
2023-02-19T03:47:49.814Z,5.13
2023-02-19T03:50:54.757Z,5.87
2023-02-19T03:53:27.144Z,6.80
2023-02-19T03:56:07.549Z,5.80
2023-02-19T03:58:56.329Z,5.60
2023-02-19T04:01:30.194Z,4.90
2023-02-19T04:04:03.900Z,5.33
2023-02-19T04:06:32.768Z,5.60
2023-02-19T04:09:02.188Z,5.70
2023-02-19T04:11:31.973Z,5.33
2023-02-19T04:14:04.982Z,5.30
2023-02-19T04:16:34.584Z,5.20
2023-02-19T04:19:06.863Z,5.80
2023-02-19T04:21:34.725Z,4.87
2023-02-19T04:24:16.412Z,5.53
2023-02-19T04:26:44.606Z,6.53
2023-02-19T04:29:11.009Z,5.80
2023-02-19T04:31:38.364Z,5.70
2023-02-19T04:34:05.159Z,5.10
2023-02-19T04:36:33.177Z,5.40
2023-02-19T04:38:59.916Z,6.70
2023-02-19T04:41:26.359Z,5.50
2023-02-19T04:43:52.784Z,5.13
2023-02-19T04:46:19.223Z,5.33
2023-02-19T04:48:45.623Z,5.50
2023-02-19T04:51:12.428Z,5.67
2023-02-19T04:53:39.001Z,5.50
2023-02-19T04:56:10.754Z,5.20
2023-02-19T04:58:37.605Z,4.83
2023-02-19T05:01:04.400Z,4.97
2023-02-19T05:03:31.312Z,5.30
2023-02-19T05:05:57.889Z,5.47
2023-02-19T05:08:24.245Z,5.80
2023-02-19T05:10:50.623Z,5.60
2023-02-19T05:13:17.000Z,5.10
2023-02-19T05:15:54.401Z,5.20
2023-02-19T05:18:20.976Z,5.70
2023-02-19T05:20:47.300Z,5.57
2023-02-19T05:23:13.681Z,5.00
2023-02-19T05:25:40.062Z,5.07
2023-02-19T05:28:18.654Z,5.10
2023-02-19T05:30:50.673Z,4.87
2023-02-19T05:33:19.030Z,4.93
2023-02-19T05:35:48.812Z,5.07
2023-02-19T05:38:16.443Z,5.83
2023-02-19T05:40:43.152Z,5.20
2023-02-19T05:43:09.809Z,6.00
2023-02-19T05:45:36.266Z,5.50
2023-02-19T05:48:03.833Z,6.30
2023-02-19T05:50:32.982Z,5.77
2023-02-19T05:53:04.003Z,5.53
2023-02-19T05:55:34.398Z,6.60
2023-02-19T05:58:01.223Z,5.50
2023-02-19T06:00:27.756Z,4.87
2023-02-19T06:02:54.497Z,5.40
2023-02-19T06:05:21.001Z,5.30
2023-02-19T06:07:50.258Z,5.23
2023-02-19T06:10:17.264Z,5.50
2023-02-19T06:12:43.886Z,5.13
2023-02-19T06:15:10.309Z,5.10
2023-02-19T06:17:36.910Z,5.40
2023-02-19T06:20:03.502Z,5.17
2023-02-19T06:22:29.900Z,4.87
2023-02-19T06:24:56.250Z,5.03
2023-02-19T06:27:22.916Z,4.70
2023-02-19T06:29:49.364Z,5.23
2023-02-19T06:32:16.831Z,4.57
2023-02-19T06:34:43.225Z,5.63
2023-02-19T06:37:09.592Z,5.30
2023-02-19T06:39:36.263Z,4.63
2023-02-19T06:42:02.832Z,5.57
2023-02-19T06:44:29.154Z,5.30
2023-02-19T06:46:55.844Z,5.07
2023-02-19T06:49:22.666Z,5.53
2023-02-19T06:51:49.011Z,5.77
2023-02-19T06:54:15.332Z,5.50
2023-02-19T06:56:42.219Z,5.30
2023-02-19T06:59:12.412Z,5.70
2023-02-19T07:01:39.477Z,5.47
2023-02-19T07:04:07.552Z,5.90
2023-02-19T07:06:35.417Z,5.23
2023-02-19T07:09:03.278Z,5.50
2023-02-19T07:11:31.690Z,5.47
2023-02-19T07:14:00.259Z,5.00
2023-02-19T07:16:27.228Z,5.70
2023-02-19T07:18:56.870Z,6.20
2023-02-19T07:21:23.569Z,6.70
2023-02-19T07:23:49.925Z,5.37
2023-02-19T07:26:18.200Z,5.70
2023-02-19T07:28:45.762Z,5.23
2023-02-19T07:31:13.774Z,6.00
2023-02-19T07:33:43.782Z,6.10
2023-02-19T07:36:10.956Z,5.70
2023-02-19T07:38:37.559Z,5.33
2023-02-19T07:41:05.076Z,5.57
2023-02-19T07:43:34.273Z,6.10
2023-02-19T07:46:12.006Z,5.30
2023-02-19T07:48:39.424Z,5.30
2023-02-19T07:51:08.100Z,5.20
2023-02-19T07:53:35.630Z,5.17
2023-02-19T07:56:05.204Z,5.73
2023-02-19T07:58:32.925Z,5.00
2023-02-19T08:01:11.204Z,4.77
2023-02-19T08:03:38.598Z,6.13
2023-02-19T08:06:05.988Z,5.60
2023-02-19T08:08:32.399Z,5.57
2023-02-19T08:11:21.946Z,5.20
2023-02-19T08:13:50.074Z,5.40
2023-02-19T08:16:29.529Z,5.13
2023-02-19T08:19:00.033Z,5.17
2023-02-19T08:21:26.637Z,4.83
2023-02-19T08:23:52.978Z,5.47
2023-02-19T08:26:19.341Z,4.97
2023-02-19T08:28:45.770Z,4.70
2023-02-19T08:31:12.980Z,5.07
2023-02-19T08:33:39.816Z,5.17
2023-02-19T08:36:08.346Z,5.50
2023-02-19T08:38:36.296Z,5.23
2023-02-19T08:41:07.236Z,5.23
2023-02-19T08:43:33.642Z,4.57
2023-02-19T08:46:00.102Z,4.60
2023-02-19T08:48:26.527Z,3.73
2023-02-19T08:50:54.860Z,3.70
2023-02-19T08:53:21.569Z,3.67
2023-02-19T08:55:47.936Z,3.37
2023-02-19T08:58:14.272Z,2.70
2023-02-19T09:00:40.614Z,2.80
2023-02-19T09:03:06.971Z,2.67
2023-02-19T09:05:33.293Z,4.97
2023-02-19T09:07:59.617Z,2.60
2023-02-19T09:10:25.960Z,2.00
2023-02-19T09:12:52.361Z,1.80
2023-02-19T09:15:18.686Z,1.87
2023-02-19T09:17:45.054Z,1.50
2023-02-19T09:20:11.738Z,1.83
2023-02-19T09:22:38.082Z,1.43
2023-02-19T09:25:04.691Z,1.60
2023-02-19T09:27:32.180Z,1.87
2023-02-19T09:29:58.561Z,2.60
2023-02-19T09:32:25.022Z,4.10
2023-02-19T09:34:51.356Z,3.10
2023-02-19T09:37:17.925Z,4.50
2023-02-19T09:39:44.259Z,3.77
2023-02-19T09:42:20.508Z,3.43
2023-02-19T09:44:50.260Z,2.43
2023-02-19T09:47:22.621Z,2.33
2023-02-19T09:49:52.970Z,2.50
2023-02-19T09:52:38.581Z,3.00
2023-02-19T09:55:15.374Z,1.50
2023-02-19T09:57:43.415Z,1.27
2023-02-19T10:00:26.858Z,1.00
2023-02-19T10:02:57.866Z,0.93
2023-02-19T10:05:26.128Z,1.10
2023-02-19T10:07:54.242Z,0.90
2023-02-19T10:10:32.647Z,1.00
2023-02-19T10:13:29.187Z,0.80
2023-02-19T10:16:01.499Z,1.00
2023-02-19T10:18:43.049Z,0.80
2023-02-19T10:21:19.571Z,0.90
2023-02-19T10:23:50.376Z,1.00
2023-02-19T10:26:17.011Z,1.13
2023-02-19T10:28:43.326Z,0.83
2023-02-19T10:31:22.000Z,1.10
2023-02-19T10:34:00.164Z,0.80
2023-02-19T10:36:33.390Z,1.50
2023-02-19T10:39:02.939Z,1.00
2023-02-19T10:41:30.579Z,1.07
2023-02-19T10:44:14.050Z,0.70
2023-02-19T10:46:46.969Z,1.20
2023-02-19T10:49:31.647Z,1.03
2023-02-19T10:52:02.473Z,1.00
2023-02-19T10:54:34.608Z,1.50
2023-02-19T10:57:19.164Z,7.57
2023-02-19T10:59:57.434Z,0.73
2023-02-19T11:02:24.468Z,0.80
2023-02-19T11:05:09.156Z,0.87
2023-02-19T11:07:37.248Z,0.70
2023-02-19T11:10:05.384Z,0.90
2023-02-19T11:12:34.094Z,1.27
2023-02-19T11:15:18.154Z,0.97
2023-02-19T11:17:44.573Z,0.67
2023-02-19T11:20:17.684Z,0.60
2023-02-19T11:22:46.879Z,0.80
2023-02-19T11:25:13.135Z,0.80
2023-02-19T11:28:13.795Z,0.80
2023-02-19T11:30:45.605Z,1.13
2023-02-19T11:33:24.069Z,0.97
2023-02-19T11:35:53.866Z,0.80
2023-02-19T11:38:21.493Z,1.00
2023-02-19T11:41:21.957Z,0.70
2023-02-19T11:44:00.677Z,0.70
2023-02-19T11:46:46.754Z,0.97
2023-02-19T11:49:31.930Z,0.80
2023-02-19T11:52:19.478Z,0.70
2023-02-19T11:55:01.289Z,1.20
2023-02-19T11:57:51.472Z,1.00
2023-02-19T12:00:34.917Z,0.70
2023-02-19T12:03:19.998Z,1.13
2023-02-19T12:06:05.153Z,0.90
2023-02-19T12:08:49.764Z,0.90
2023-02-19T12:11:59.547Z,0.90
2023-02-19T12:14:43.666Z,0.80
2023-02-19T12:17:24.716Z,1.40
2023-02-19T12:20:10.446Z,1.00
2023-02-19T12:22:51.214Z,1.60
2023-02-19T12:25:41.788Z,1.10
2023-02-19T12:28:23.449Z,1.30
2023-02-19T12:30:59.484Z,1.27
2023-02-19T12:34:09.960Z,1.23
2023-02-19T12:37:02.193Z,0.80
2023-02-19T12:39:46.830Z,1.23
2023-02-19T12:42:41.086Z,1.30
2023-02-19T12:45:30.070Z,1.10
2023-02-19T12:48:03.533Z,0.90
2023-02-19T12:50:31.743Z,1.00
2023-02-19T12:53:05.275Z,1.10
2023-02-19T12:55:37.953Z,1.43
2023-02-19T12:58:10.373Z,1.37
2023-02-19T13:00:50.552Z,1.17
2023-02-19T13:03:24.411Z,1.00
2023-02-19T13:06:27.875Z,1.10
2023-02-19T13:09:06.620Z,1.20
2023-02-19T13:11:54.135Z,1.20
2023-02-19T13:14:33.094Z,1.03
2023-02-19T13:17:17.927Z,1.10
2023-02-19T13:19:48.343Z,1.10
2023-02-19T13:22:59.832Z,1.10
2023-02-19T13:25:44.120Z,1.00
2023-02-19T13:28:39.819Z,1.23
2023-02-19T13:31:34.630Z,1.33
2023-02-19T13:34:28.985Z,1.47
2023-02-19T13:36:56.103Z,1.00
2023-02-19T13:39:23.199Z,1.10
2023-02-19T13:41:57.329Z,1.30
2023-02-19T13:44:27.513Z,1.30
2023-02-19T13:46:54.115Z,1.10
2023-02-19T13:49:27.392Z,1.27
2023-02-19T13:52:24.094Z,1.07
2023-02-19T13:54:51.247Z,1.43
2023-02-19T13:57:23.561Z,1.20
2023-02-19T13:59:50.716Z,1.30
2023-02-19T14:02:20.369Z,2.00
2023-02-19T14:05:00.294Z,1.27
2023-02-19T14:07:26.627Z,1.47
2023-02-19T14:09:53.852Z,1.70
2023-02-19T14:12:22.547Z,1.50
2023-02-19T14:14:51.318Z,1.50
2023-02-19T14:17:23.729Z,1.47
2023-02-19T14:19:51.649Z,1.23
2023-02-19T14:22:46.251Z,1.63
2023-02-19T14:25:30.890Z,1.50
2023-02-19T14:28:16.909Z,1.80
2023-02-19T14:30:55.373Z,1.60
2023-02-19T14:33:25.405Z,1.40
2023-02-19T14:36:10.505Z,1.53
2023-02-19T14:38:42.703Z,1.67
2023-02-19T14:41:13.212Z,2.60
2023-02-19T14:43:40.433Z,1.43
2023-02-19T14:46:20.574Z,1.73
2023-02-19T14:48:49.511Z,1.60
2023-02-19T14:51:36.219Z,1.40
2023-02-19T14:54:16.001Z,1.70
2023-02-19T14:56:47.462Z,1.83
2023-02-19T14:59:13.829Z,1.70
2023-02-19T15:01:40.293Z,1.53
2023-02-19T15:04:20.019Z,1.40
2023-02-19T15:06:46.457Z,1.43
2023-02-19T15:09:13.460Z,1.30
2023-02-19T15:11:42.901Z,1.40
2023-02-19T15:14:20.966Z,1.23
2023-02-19T15:16:48.022Z,1.70
2023-02-19T15:19:17.061Z,1.77
2023-02-19T15:21:47.864Z,1.70
2023-02-19T15:24:16.703Z,2.33
2023-02-19T15:26:48.454Z,1.67
2023-02-19T15:29:17.746Z,1.60
2023-02-19T15:31:49.850Z,1.83
2023-02-19T15:34:31.039Z,1.70
2023-02-19T15:37:01.607Z,2.00
2023-02-19T15:39:36.361Z,2.50
2023-02-19T15:42:05.262Z,2.00
2023-02-19T15:44:58.162Z,1.80
2023-02-19T15:47:33.215Z,1.70
2023-02-19T15:50:09.202Z,1.77
2023-02-19T15:52:41.583Z,1.80
2023-02-19T15:55:35.918Z,3.20
2023-02-19T15:58:37.563Z,1.80
2023-02-19T16:01:12.638Z,2.23
2023-02-19T16:03:39.550Z,2.20
2023-02-19T16:06:15.191Z,1.77
2023-02-19T16:08:43.723Z,2.10
2023-02-19T16:11:21.923Z,2.70
2023-02-19T16:13:48.572Z,1.90
2023-02-19T16:16:30.780Z,2.13
2023-02-19T16:18:57.572Z,2.17
2023-02-19T16:21:26.864Z,2.43
2023-02-19T16:24:02.478Z,1.97
2023-02-19T16:26:29.141Z,1.90
2023-02-19T16:28:55.609Z,1.87
2023-02-19T16:31:23.597Z,2.30
2023-02-19T16:33:50.910Z,2.60
2023-02-19T16:36:45.926Z,2.40
2023-02-19T16:39:12.890Z,2.70
2023-02-19T16:41:39.382Z,2.00
2023-02-19T16:44:20.772Z,1.93
2023-02-19T16:46:49.081Z,1.87
2023-02-19T16:49:15.590Z,1.67
2023-02-19T16:51:44.005Z,2.23
2023-02-19T16:54:10.962Z,2.20
2023-02-19T16:56:37.648Z,2.07
2023-02-19T16:59:04.056Z,2.00
2023-02-19T17:01:30.859Z,2.60
2023-02-19T17:04:01.175Z,2.10
2023-02-19T17:06:27.583Z,1.93
2023-02-19T17:08:53.926Z,2.20
2023-02-19T17:11:20.522Z,2.50
2023-02-19T17:13:47.072Z,2.93
2023-02-19T17:16:19.704Z,2.20
2023-02-19T17:18:46.153Z,2.73
2023-02-19T17:21:18.489Z,2.37
2023-02-19T17:23:44.920Z,3.77
2023-02-19T17:26:14.559Z,2.20
2023-02-19T17:28:41.541Z,2.40
2023-02-19T17:31:10.402Z,2.10
2023-02-19T17:33:38.278Z,2.30
2023-02-19T17:36:04.962Z,2.23
2023-02-19T17:38:31.270Z,2.17
2023-02-19T17:40:57.602Z,2.20
2023-02-19T17:43:25.521Z,2.57
2023-02-19T17:45:51.983Z,2.43
2023-02-19T17:48:18.338Z,2.23
2023-02-19T17:50:44.663Z,2.67
2023-02-19T17:53:10.987Z,2.60
2023-02-19T17:55:37.374Z,2.40
2023-02-19T17:58:03.716Z,2.50
2023-02-19T18:00:32.091Z,2.17
2023-02-19T18:02:58.683Z,2.20
2023-02-19T18:05:25.010Z,2.10
2023-02-19T18:07:51.898Z,2.30
2023-02-19T18:10:20.068Z,2.47
2023-02-19T18:12:46.616Z,2.20
2023-02-19T18:15:21.996Z,2.67
2023-02-19T18:17:48.495Z,2.50
2023-02-19T18:20:17.083Z,2.50
2023-02-19T18:22:43.696Z,2.33
2023-02-19T18:25:10.730Z,2.80
2023-02-19T18:27:37.724Z,1.90
2023-02-19T18:30:05.152Z,2.60
2023-02-19T18:32:31.517Z,2.20
2023-02-19T18:34:59.966Z,2.30
2023-02-19T18:37:27.278Z,2.90
2023-02-19T18:39:53.987Z,2.70
2023-02-19T18:42:21.680Z,3.10
2023-02-19T18:44:49.128Z,2.97
2023-02-19T18:47:16.376Z,2.30
2023-02-19T18:49:50.366Z,2.83
2023-02-19T18:52:20.232Z,2.30
2023-02-19T18:54:47.859Z,2.93
2023-02-19T18:57:15.140Z,3.03
2023-02-19T18:59:42.680Z,2.97
2023-02-19T19:02:09.932Z,2.20
2023-02-19T19:04:38.109Z,2.60
2023-02-19T19:07:06.246Z,2.40
2023-02-19T19:09:33.313Z,3.30
2023-02-19T19:11:59.958Z,2.87
2023-02-19T19:14:26.636Z,2.67
2023-02-19T19:16:53.129Z,3.70
2023-02-19T19:19:19.816Z,3.00
2023-02-19T19:21:53.298Z,3.57
2023-02-19T19:24:21.241Z,2.50
2023-02-19T19:26:48.431Z,2.73
2023-02-19T19:29:16.070Z,3.20
2023-02-19T19:31:43.270Z,3.53
2023-02-19T19:34:11.157Z,3.27
2023-02-19T19:36:37.587Z,2.63
2023-02-19T19:39:04.336Z,2.70
2023-02-19T19:41:31.103Z,3.50
2023-02-19T19:43:57.572Z,3.17
2023-02-19T19:46:23.994Z,3.23
2023-02-19T19:48:52.717Z,3.20
2023-02-19T19:51:19.422Z,3.00
2023-02-19T19:53:49.691Z,2.90
2023-02-19T19:56:17.233Z,2.60
2023-02-19T19:58:43.606Z,3.70
2023-02-19T20:01:10.338Z,3.13
2023-02-19T20:03:37.917Z,3.80
2023-02-19T20:06:04.619Z,3.43
2023-02-19T20:08:30.993Z,4.00
2023-02-19T20:10:57.391Z,4.03
2023-02-19T20:13:24.676Z,3.93
2023-02-19T20:15:51.895Z,3.73
2023-02-19T20:18:18.677Z,3.33
2023-02-19T20:20:45.004Z,4.00
2023-02-19T20:23:11.351Z,3.60
2023-02-19T20:25:37.689Z,4.30
2023-02-19T20:28:04.228Z,3.57
2023-02-19T20:30:30.629Z,3.40
2023-02-19T20:32:56.997Z,3.30
2023-02-19T20:35:26.699Z,3.03
2023-02-19T20:37:53.019Z,2.63
2023-02-19T20:40:19.866Z,3.60
2023-02-19T20:42:46.250Z,2.73
2023-02-19T20:45:14.244Z,3.00
2023-02-19T20:47:40.585Z,3.43
2023-02-19T20:50:07.333Z,2.70
2023-02-19T20:52:33.677Z,3.00
2023-02-19T20:55:00.053Z,3.87
2023-02-19T20:57:26.440Z,3.20
2023-02-19T20:59:52.770Z,3.70
2023-02-19T21:02:22.982Z,3.00
2023-02-19T21:04:49.438Z,3.37
2023-02-19T21:07:16.402Z,3.60
2023-02-19T21:09:42.744Z,3.33
2023-02-19T21:12:09.332Z,3.27
2023-02-19T21:14:35.744Z,3.23
2023-02-19T21:17:02.117Z,2.97
2023-02-19T21:19:28.552Z,3.17
2023-02-19T21:21:54.903Z,3.37
2023-02-19T21:24:21.274Z,2.73
2023-02-19T21:26:47.625Z,3.67
2023-02-19T21:29:20.951Z,3.20
2023-02-19T21:31:50.352Z,3.10
2023-02-19T21:34:19.351Z,3.60
2023-02-19T21:36:46.187Z,3.43
2023-02-19T21:39:14.362Z,3.50
2023-02-19T21:41:40.822Z,3.20
2023-02-19T21:44:07.165Z,2.90
2023-02-19T21:46:33.621Z,3.37
2023-02-19T21:49:00.375Z,3.33
2023-02-19T21:51:38.586Z,3.67
2023-02-19T21:54:06.174Z,3.53
2023-02-19T21:56:36.115Z,4.37
2023-02-19T21:59:03.009Z,4.20
2023-02-19T22:01:32.186Z,4.00
2023-02-19T22:03:59.129Z,3.43
2023-02-19T22:06:29.174Z,4.00
2023-02-19T22:08:55.953Z,3.30
2023-02-19T22:11:22.321Z,3.80
2023-02-19T22:13:48.818Z,3.87
2023-02-19T22:16:15.727Z,3.60
2023-02-19T22:18:50.472Z,3.10
2023-02-19T22:21:17.340Z,4.50
2023-02-19T22:23:48.538Z,4.03
2023-02-19T22:26:22.677Z,4.83
2023-02-19T22:28:49.402Z,3.60
2023-02-19T22:31:17.732Z,3.90
2023-02-19T22:33:44.344Z,3.70
2023-02-19T22:36:36.831Z,3.63
2023-02-19T22:39:04.857Z,4.60
2023-02-19T22:41:31.211Z,5.43
2023-02-19T22:43:58.910Z,4.50
2023-02-19T22:46:28.436Z,3.83
2023-02-19T22:48:54.951Z,4.13
2023-02-19T22:51:23.360Z,3.77
2023-02-19T22:53:54.333Z,3.47
2023-02-19T22:56:22.853Z,4.03
2023-02-19T22:58:49.839Z,3.80
2023-02-19T23:01:16.656Z,4.07
2023-02-19T23:03:54.880Z,3.73
2023-02-19T23:06:24.834Z,4.37
2023-02-19T23:08:52.352Z,4.30
2023-02-19T23:11:24.741Z,3.90
2023-02-19T23:13:51.621Z,4.60
2023-02-19T23:16:18.145Z,4.53
2023-02-19T23:18:44.513Z,4.60
2023-02-19T23:21:11.243Z,4.00
2023-02-19T23:23:37.553Z,4.40
2023-02-19T23:26:05.082Z,4.40
2023-02-19T23:28:31.459Z,3.63
2023-02-19T23:30:57.990Z,2.87
2023-02-19T23:33:24.415Z,3.40
2023-02-19T23:35:50.743Z,3.13
2023-02-19T23:38:17.218Z,4.10
2023-02-19T23:40:43.640Z,3.53
2023-02-19T23:43:10.000Z,3.60
2023-02-19T23:45:36.348Z,3.33
2023-02-19T23:48:02.833Z,3.30
2023-02-19T23:50:29.198Z,3.40
2023-02-19T23:52:56.756Z,3.30
2023-02-19T23:55:23.173Z,3.77
2023-02-19T23:57:49.594Z,2.93
